createdAt,value
2022-10-21T00:00:26.176Z,18.30
2022-10-21T00:02:54.137Z,21.40
2022-10-21T00:05:22.085Z,18.90
2022-10-21T00:07:50.047Z,20.38
2022-10-21T00:10:19.626Z,19.02
2022-10-21T00:12:47.520Z,20.55
2022-10-21T00:15:15.467Z,17.85
2022-10-21T00:17:44.390Z,20.55
2022-10-21T00:20:13.912Z,16.40
2022-10-21T00:22:41.908Z,19.80
2022-10-21T00:25:10.575Z,17.73
2022-10-21T00:27:40.278Z,20.65
2022-10-21T00:30:10.047Z,20.90
2022-10-21T00:32:38.397Z,17.98
2022-10-21T00:35:07.602Z,20.10
2022-10-21T00:37:35.800Z,17.50
2022-10-21T00:40:04.214Z,17.20
2022-10-21T00:42:34.641Z,16.70
2022-10-21T00:45:28.674Z,17.55
2022-10-21T00:48:01.163Z,17.17
2022-10-21T00:50:37.526Z,16.98
2022-10-21T00:53:10.748Z,16.08
2022-10-21T00:55:42.323Z,19.63
2022-10-21T00:58:11.517Z,17.58
2022-10-21T01:00:42.806Z,16.73
2022-10-21T01:03:11.730Z,15.30
2022-10-21T01:05:42.398Z,17.55
2022-10-21T01:08:10.665Z,14.23
2022-10-21T01:10:39.573Z,16.45
2022-10-21T01:13:17.767Z,14.60
2022-10-21T01:15:53.651Z,15.15
2022-10-21T01:18:31.227Z,15.48
2022-10-21T01:21:22.011Z,14.90
2022-10-21T01:24:24.565Z,13.90
2022-10-21T01:27:14.188Z,12.25
2022-10-21T01:30:28.979Z,12.98
2022-10-21T01:33:31.606Z,15.20
2022-10-21T01:36:06.767Z,14.85
2022-10-21T01:38:43.203Z,16.50
2022-10-21T01:41:14.728Z,15.07
2022-10-21T01:43:51.395Z,14.13
2022-10-21T01:46:27.329Z,17.65
2022-10-21T01:49:01.735Z,15.93
2022-10-21T01:51:32.540Z,17.92
2022-10-21T01:54:06.908Z,15.75
2022-10-21T01:56:35.433Z,17.77
2022-10-21T01:59:06.131Z,16.30
2022-10-21T02:01:37.170Z,16.17
2022-10-21T02:04:09.566Z,13.40
2022-10-21T02:06:37.913Z,14.98
2022-10-21T02:09:06.314Z,15.20
2022-10-21T02:11:37.697Z,22.70
2022-10-21T02:14:09.553Z,15.88
2022-10-21T02:16:40.686Z,13.85
2022-10-21T02:19:19.118Z,14.48
2022-10-21T02:21:48.931Z,14.63
2022-10-21T02:24:22.057Z,17.50
2022-10-21T02:26:50.681Z,17.67
2022-10-21T02:29:35.027Z,16.70
2022-10-21T02:32:20.760Z,16.45
2022-10-21T02:34:59.889Z,17.33
2022-10-21T02:37:33.736Z,17.98
2022-10-21T02:40:07.680Z,21.67
2022-10-21T02:42:41.693Z,18.23
2022-10-21T02:45:11.038Z,22.13
2022-10-21T02:47:40.227Z,22.02
2022-10-21T02:50:10.557Z,20.13
2022-10-21T02:52:38.478Z,17.40
2022-10-21T02:55:07.066Z,20.35
2022-10-21T02:57:35.231Z,22.67
2022-10-21T03:00:03.299Z,25.05
2022-10-21T03:02:31.246Z,21.83
2022-10-21T03:04:59.149Z,21.30
2022-10-21T03:07:28.805Z,20.85
2022-10-21T03:09:56.709Z,26.42
2022-10-21T03:12:24.651Z,20.17
2022-10-21T03:14:52.591Z,22.13
2022-10-21T03:17:24.333Z,24.23
2022-10-21T03:19:53.422Z,20.40
2022-10-21T03:22:21.362Z,21.90
2022-10-21T03:24:50.731Z,24.75
2022-10-21T03:27:18.747Z,22.95
2022-10-21T03:29:46.744Z,21.63
2022-10-21T03:32:14.628Z,27.13
2022-10-21T03:34:43.094Z,20.65
2022-10-21T03:37:11.015Z,20.90
2022-10-21T03:39:38.967Z,23.02
2022-10-21T03:42:08.228Z,21.00
2022-10-21T03:44:36.218Z,21.13
2022-10-21T03:47:04.158Z,19.92
2022-10-21T03:49:32.203Z,22.40
2022-10-21T03:52:00.123Z,19.08
2022-10-21T03:54:28.111Z,18.98
2022-10-21T03:56:56.071Z,18.92
2022-10-21T03:59:25.912Z,21.25
2022-10-21T04:01:54.043Z,22.48
2022-10-21T04:04:22.109Z,21.23
2022-10-21T04:06:50.043Z,18.42
2022-10-21T04:09:18.171Z,19.25
2022-10-21T04:11:46.537Z,15.88
2022-10-21T04:14:15.520Z,19.73
2022-10-21T04:16:47.906Z,18.77
2022-10-21T04:19:19.722Z,18.02
2022-10-21T04:21:48.628Z,18.38
2022-10-21T04:24:16.745Z,21.65
2022-10-21T04:26:44.816Z,19.27
2022-10-21T04:29:12.707Z,18.75
2022-10-21T04:31:41.237Z,18.85
2022-10-21T04:34:10.802Z,16.63
2022-10-21T04:36:38.813Z,17.60
2022-10-21T04:39:06.735Z,17.35
2022-10-21T04:41:34.814Z,16.15
2022-10-21T04:44:03.075Z,15.70
2022-10-21T04:46:31.087Z,15.70
2022-10-21T04:48:59.036Z,13.77
2022-10-21T04:51:28.746Z,14.15
2022-10-21T04:53:56.933Z,13.80
2022-10-21T04:56:25.026Z,12.50
2022-10-21T04:58:53.004Z,16.25
2022-10-21T05:01:22.675Z,16.83
2022-10-21T05:03:50.878Z,16.45
2022-10-21T05:06:19.034Z,14.60
2022-10-21T05:08:48.579Z,12.52
2022-10-21T05:11:16.806Z,15.77
2022-10-21T05:13:44.781Z,12.05
2022-10-21T05:16:12.809Z,13.95
2022-10-21T05:18:40.685Z,13.40
2022-10-21T05:21:08.798Z,10.95
2022-10-21T05:23:36.873Z,11.52
2022-10-21T05:26:06.614Z,12.27
2022-10-21T05:28:39.446Z,11.30
2022-10-21T05:31:07.570Z,12.95
2022-10-21T05:33:35.860Z,12.93
2022-10-21T05:36:09.478Z,14.00
2022-10-21T05:38:37.829Z,11.65
2022-10-21T05:41:07.309Z,13.32
2022-10-21T05:43:35.558Z,11.32
2022-10-21T05:46:04.080Z,11.68
2022-10-21T05:48:32.415Z,11.13
2022-10-21T05:51:01.036Z,14.65
2022-10-21T05:53:29.538Z,11.35
2022-10-21T05:55:58.020Z,11.15
2022-10-21T05:58:29.420Z,12.07
2022-10-21T06:00:58.978Z,9.80
2022-10-21T06:03:29.973Z,10.55
2022-10-21T06:05:58.383Z,9.38
2022-10-21T06:08:26.704Z,11.25
2022-10-21T06:11:01.895Z,10.20
2022-10-21T06:13:32.723Z,10.93
2022-10-21T06:16:01.315Z,11.23
2022-10-21T06:18:29.617Z,10.48
2022-10-21T06:20:57.883Z,10.48
2022-10-21T06:23:26.152Z,10.88
2022-10-21T06:25:58.491Z,12.82
2022-10-21T06:28:27.352Z,11.27
2022-10-21T06:30:56.887Z,8.55
2022-10-21T06:33:27.177Z,9.43
2022-10-21T06:35:55.790Z,10.73
2022-10-21T06:38:24.264Z,10.73
2022-10-21T06:40:52.295Z,8.93
2022-10-21T06:45:48.522Z,8.77
2022-10-21T06:48:17.779Z,9.10
2022-10-21T06:50:45.741Z,9.18
2022-10-21T06:53:13.671Z,6.45
2022-10-21T06:58:11.442Z,7.57
2022-10-21T07:00:40.509Z,8.65
2022-10-21T07:03:08.467Z,9.65
2022-10-21T07:05:37.918Z,7.90
2022-10-21T07:08:10.544Z,9.45
2022-10-21T07:10:42.391Z,7.40
2022-10-21T07:13:10.524Z,6.47
2022-10-21T07:15:38.479Z,7.07
2022-10-21T07:18:06.503Z,7.00
2022-10-21T07:20:35.096Z,6.50
2022-10-21T07:23:04.463Z,9.27
2022-10-21T07:25:32.384Z,7.47
2022-10-21T07:28:00.308Z,6.18
2022-10-21T07:30:28.210Z,7.32
2022-10-21T07:32:56.240Z,6.43
2022-10-21T07:35:24.805Z,7.47
2022-10-21T07:37:52.720Z,7.32
2022-10-21T07:40:22.060Z,6.18
2022-10-21T07:42:50.071Z,7.22
2022-10-21T07:45:18.056Z,6.15
2022-10-21T07:47:46.154Z,5.68
2022-10-21T07:50:14.680Z,5.35
2022-10-21T07:52:51.901Z,5.90
2022-10-21T07:58:01.772Z,6.35
2022-10-21T08:00:29.898Z,4.63
2022-10-21T08:02:57.927Z,4.53
2022-10-21T08:05:26.079Z,5.80
2022-10-21T08:07:54.095Z,4.50
2022-10-21T08:10:22.155Z,5.80
2022-10-21T08:12:53.586Z,4.80
2022-10-21T08:15:21.577Z,4.95
2022-10-21T08:17:49.614Z,4.40
2022-10-21T08:20:17.748Z,3.90
2022-10-21T08:22:45.647Z,7.03
2022-10-21T08:25:16.879Z,6.18
2022-10-21T08:27:44.894Z,4.15
2022-10-21T08:30:15.631Z,5.80
2022-10-21T08:32:43.781Z,4.25
2022-10-21T08:35:11.663Z,4.15
2022-10-21T08:37:39.935Z,4.22
2022-10-21T08:40:10.961Z,5.28
2022-10-21T08:42:42.606Z,3.45
2022-10-21T08:45:22.598Z,3.75
2022-10-21T08:47:55.197Z,2.70
2022-10-21T08:50:25.795Z,3.63
2022-10-21T08:52:58.423Z,6.22
2022-10-21T08:55:34.266Z,5.13
2022-10-21T08:58:02.591Z,5.18
2022-10-21T09:00:36.931Z,4.22
2022-10-21T09:03:19.408Z,3.78
2022-10-21T09:06:04.974Z,4.82
2022-10-21T09:08:39.559Z,8.52
2022-10-21T09:11:20.429Z,6.07
2022-10-21T09:14:14.518Z,4.68
2022-10-21T09:16:51.144Z,3.50
2022-10-21T09:19:32.566Z,4.63
2022-10-21T09:22:34.282Z,2.53
2022-10-21T09:25:18.138Z,7.85
2022-10-21T09:28:01.951Z,4.22
2022-10-21T09:30:30.303Z,5.28
2022-10-21T09:33:00.977Z,4.15
2022-10-21T09:35:35.435Z,5.70
2022-10-21T09:38:07.767Z,5.18
2022-10-21T09:40:36.080Z,5.72
2022-10-21T09:43:04.884Z,4.93
2022-10-21T09:45:35.110Z,3.90
2022-10-21T09:48:07.536Z,4.60
2022-10-21T09:50:36.091Z,4.07
2022-10-21T09:53:10.417Z,5.97
2022-10-21T09:55:40.345Z,5.40
2022-10-21T09:58:08.349Z,4.35
2022-10-21T10:00:46.114Z,4.90
2022-10-21T10:03:30.934Z,5.40
2022-10-21T10:06:00.728Z,7.82
2022-10-21T10:08:35.385Z,5.30
2022-10-21T10:11:15.496Z,4.15
2022-10-21T10:13:47.408Z,5.63
2022-10-21T10:16:27.854Z,5.22
2022-10-21T10:19:17.447Z,7.35
2022-10-21T10:21:45.750Z,3.63
2022-10-21T10:24:22.264Z,5.90
2022-10-21T10:26:50.684Z,5.13
2022-10-21T10:29:25.922Z,3.25
2022-10-21T10:31:56.786Z,5.53
2022-10-21T10:34:31.927Z,6.35
2022-10-21T10:37:06.335Z,3.10
2022-10-21T10:39:37.563Z,6.10
2022-10-21T10:42:05.936Z,4.85
2022-10-21T10:44:37.863Z,5.60
2022-10-21T10:47:08.368Z,7.22
2022-10-21T10:49:40.896Z,6.05
2022-10-21T10:52:21.337Z,5.05
2022-10-21T10:54:50.310Z,4.53
2022-10-21T10:57:24.007Z,6.67
2022-10-21T11:00:06.087Z,5.80
2022-10-21T11:02:41.889Z,5.43
2022-10-21T11:05:24.601Z,3.83
2022-10-21T11:07:54.914Z,5.30
2022-10-21T11:10:31.823Z,7.82
2022-10-21T11:13:00.696Z,6.22
2022-10-21T11:15:48.026Z,4.07
2022-10-21T11:18:25.481Z,5.00
2022-10-21T11:21:06.318Z,3.85
2022-10-21T11:23:58.684Z,5.45
2022-10-21T11:26:34.382Z,7.30
2022-10-21T11:29:11.701Z,5.35
2022-10-21T11:32:10.225Z,5.45
2022-10-21T11:34:48.349Z,6.55
2022-10-21T11:37:26.864Z,8.80
2022-10-21T11:40:00.120Z,6.80
2022-10-21T11:42:35.937Z,7.55
2022-10-21T11:45:25.900Z,9.15
2022-10-21T11:48:00.839Z,5.40
2022-10-21T11:50:34.641Z,5.88
2022-10-21T11:53:17.265Z,7.57
2022-10-21T11:55:50.817Z,6.07
2022-10-21T11:58:28.121Z,6.70
2022-10-21T12:01:07.193Z,4.55
2022-10-21T12:03:56.715Z,9.23
2022-10-21T12:06:31.018Z,7.60
2022-10-21T12:09:03.956Z,7.72
2022-10-21T12:11:39.102Z,5.50
2022-10-21T12:14:16.715Z,8.23
2022-10-21T12:16:46.101Z,8.73
2022-10-21T12:19:15.226Z,5.70
2022-10-21T12:21:45.932Z,8.30
2022-10-21T12:24:28.079Z,6.90
2022-10-21T12:27:03.664Z,9.32
2022-10-21T12:29:47.874Z,7.10
2022-10-21T12:32:23.945Z,6.85
2022-10-21T12:34:51.923Z,12.27
2022-10-21T12:38:00.655Z,9.00
2022-10-21T12:40:42.179Z,6.78
2022-10-21T12:43:23.942Z,7.78
2022-10-21T12:46:08.125Z,8.18
2022-10-21T12:48:39.578Z,6.57
2022-10-21T12:51:19.310Z,5.13
2022-10-21T12:56:33.345Z,6.30
2022-10-21T12:59:04.481Z,7.32
2022-10-21T13:01:39.923Z,5.22
2022-10-21T13:04:48.307Z,4.70
2022-10-21T13:07:37.353Z,6.10
2022-10-21T13:10:26.529Z,5.47
2022-10-21T13:13:31.770Z,5.68
2022-10-21T13:16:03.335Z,6.63
2022-10-21T13:18:53.985Z,7.20
2022-10-21T13:21:40.897Z,6.53
2022-10-21T13:24:22.401Z,4.10
2022-10-21T13:26:53.240Z,7.22
2022-10-21T13:29:30.831Z,4.00
2022-10-21T13:32:32.939Z,4.30
2022-10-21T13:35:27.693Z,5.97
2022-10-21T13:37:59.249Z,6.03
2022-10-21T13:40:32.588Z,4.93
2022-10-21T13:43:03.362Z,7.45
2022-10-21T13:45:37.235Z,5.95
2022-10-21T13:48:08.300Z,6.40
2022-10-21T13:50:40.800Z,7.05
2022-10-21T13:53:28.547Z,9.40
2022-10-21T13:55:59.030Z,4.40
2022-10-21T13:58:28.124Z,10.00
2022-10-21T14:00:59.099Z,5.35
2022-10-21T14:03:28.060Z,5.55
2022-10-21T14:05:59.598Z,4.93
2022-10-21T14:08:32.001Z,8.15
2022-10-21T14:11:03.051Z,6.80
2022-10-21T14:13:36.703Z,4.38
2022-10-21T14:16:07.628Z,4.78
2022-10-21T14:18:39.840Z,7.00
2022-10-21T14:21:14.892Z,6.97
2022-10-21T14:23:46.061Z,4.30
2022-10-21T14:26:14.944Z,7.00
2022-10-21T14:28:44.856Z,8.83
2022-10-21T14:31:16.039Z,5.13
2022-10-21T14:33:47.032Z,4.85
2022-10-21T14:36:18.941Z,5.03
2022-10-21T14:38:55.137Z,6.07
2022-10-21T14:41:27.647Z,6.88
2022-10-21T14:43:57.197Z,4.78
2022-10-21T14:46:26.469Z,5.57
2022-10-21T14:48:59.628Z,3.58
2022-10-21T14:51:28.960Z,6.65
2022-10-21T14:53:59.982Z,5.78
2022-10-21T14:56:33.920Z,5.43
2022-10-21T14:59:09.253Z,5.95
2022-10-21T15:01:43.991Z,4.85
2022-10-21T15:04:41.662Z,4.45
2022-10-21T15:07:17.673Z,4.45
2022-10-21T15:10:09.590Z,6.05
2022-10-21T15:12:41.390Z,5.78
2022-10-21T15:15:48.246Z,7.75
2022-10-21T15:18:25.966Z,4.80
2022-10-21T15:20:56.782Z,4.35
2022-10-21T15:23:27.931Z,5.75
2022-10-21T15:26:00.345Z,6.05
2022-10-21T15:28:31.951Z,7.50
2022-10-21T15:31:00.655Z,5.55
2022-10-21T15:33:30.141Z,6.10
2022-10-21T15:36:02.177Z,4.75
2022-10-21T15:38:30.417Z,4.57
2022-10-21T15:40:58.365Z,4.82
2022-10-21T15:43:26.511Z,5.00
2022-10-21T15:45:54.858Z,4.68
2022-10-21T15:48:24.266Z,12.80
2022-10-21T15:50:57.199Z,3.78
2022-10-21T15:53:25.287Z,6.22
2022-10-21T15:55:54.121Z,6.47
2022-10-21T15:58:22.086Z,6.23
2022-10-21T16:00:50.005Z,7.28
2022-10-21T16:03:17.992Z,4.63
2022-10-21T16:05:46.306Z,5.10
2022-10-21T16:08:17.029Z,5.13
2022-10-21T16:10:47.878Z,5.50
2022-10-21T16:13:16.595Z,6.97
2022-10-21T16:15:44.530Z,5.53
2022-10-21T16:18:14.482Z,6.00
2022-10-21T16:20:44.063Z,6.07
2022-10-21T16:23:12.193Z,5.57
2022-10-21T16:25:41.507Z,6.38
2022-10-21T16:28:12.264Z,3.83
2022-10-21T16:30:41.845Z,8.45
2022-10-21T16:33:11.151Z,7.70
2022-10-21T16:35:39.257Z,5.50
2022-10-21T16:38:07.174Z,4.70
2022-10-21T16:40:36.291Z,5.57
2022-10-21T16:43:05.663Z,4.53
2022-10-21T16:45:34.004Z,8.27
2022-10-21T16:48:05.442Z,3.95
2022-10-21T16:50:39.421Z,5.80
2022-10-21T16:53:08.072Z,3.47
2022-10-21T16:55:35.920Z,4.57
2022-10-21T16:58:05.238Z,3.25
2022-10-21T17:00:33.556Z,5.40
2022-10-21T17:03:01.719Z,5.35
2022-10-21T17:05:29.838Z,6.22
2022-10-21T17:07:58.543Z,3.55
2022-10-21T17:10:26.570Z,2.90
2022-10-21T17:12:58.929Z,3.97
2022-10-21T17:15:29.172Z,3.50
2022-10-21T17:17:57.062Z,3.63
2022-10-21T17:20:24.994Z,3.65
2022-10-21T17:22:53.014Z,3.45
2022-10-21T17:25:22.842Z,5.18
2022-10-21T17:27:50.970Z,3.72
2022-10-21T17:30:19.222Z,3.70
2022-10-21T17:32:48.745Z,2.00
2022-10-21T17:35:19.656Z,2.45
2022-10-21T17:37:47.945Z,2.90
2022-10-21T17:40:18.076Z,3.85
2022-10-21T17:42:46.240Z,3.50
2022-10-21T17:45:15.476Z,4.55
2022-10-21T17:47:43.732Z,2.75
2022-10-21T17:50:14.307Z,2.90
2022-10-21T17:52:43.538Z,4.80
2022-10-21T17:55:11.604Z,2.72
2022-10-21T17:57:39.528Z,2.55
2022-10-21T18:00:08.846Z,3.65
2022-10-21T18:02:37.799Z,4.18
2022-10-21T18:05:07.991Z,4.32
2022-10-21T18:07:38.098Z,2.53
2022-10-21T18:10:07.439Z,2.28
2022-10-21T18:12:35.510Z,2.67
2022-10-21T18:15:03.728Z,4.78
2022-10-21T18:17:33.043Z,3.15
2022-10-21T18:20:00.984Z,2.42
2022-10-21T18:22:30.489Z,3.30
2022-10-21T18:24:59.815Z,3.58
2022-10-21T18:27:27.784Z,2.83
2022-10-21T18:29:55.762Z,7.15
2022-10-21T18:32:23.649Z,2.72
2022-10-21T18:34:51.733Z,3.85
2022-10-21T18:37:20.317Z,3.03
2022-10-21T18:39:48.934Z,4.75
2022-10-21T18:42:18.439Z,4.80
2022-10-21T18:44:46.606Z,4.22
2022-10-21T18:47:14.527Z,4.30
2022-10-21T18:49:42.449Z,3.92
2022-10-21T18:52:11.474Z,3.90
2022-10-21T18:54:39.914Z,6.78
2022-10-21T18:57:10.070Z,3.75
2022-10-21T18:59:39.546Z,3.67
2022-10-21T19:02:09.740Z,3.38
2022-10-21T19:04:39.779Z,3.10
2022-10-21T19:07:07.664Z,4.28
2022-10-21T19:09:35.633Z,4.60
2022-10-21T19:12:03.880Z,4.75
2022-10-21T19:14:33.816Z,4.43
2022-10-21T19:17:03.149Z,3.22
2022-10-21T19:19:31.826Z,4.40
2022-10-21T19:22:01.715Z,7.45
2022-10-21T19:24:30.694Z,6.82
2022-10-21T19:27:00.225Z,8.80
2022-10-21T19:29:28.138Z,5.47
2022-10-21T19:31:56.984Z,3.83
2022-10-21T19:34:27.274Z,6.33
2022-10-21T19:36:55.274Z,4.45
2022-10-21T19:39:23.279Z,4.13
2022-10-21T19:41:51.284Z,5.95
2022-10-21T19:44:19.535Z,6.85
2022-10-21T19:46:47.512Z,6.65
2022-10-21T19:49:15.820Z,5.78
2022-10-21T19:51:45.171Z,3.78
2022-10-21T19:54:14.205Z,6.18
2022-10-21T19:56:42.403Z,7.35
2022-10-21T19:59:11.333Z,5.60
2022-10-21T20:01:39.554Z,5.20
2022-10-21T20:04:07.626Z,6.18
2022-10-21T20:06:37.774Z,3.78
2022-10-21T20:09:10.995Z,3.22
2022-10-21T20:11:40.761Z,4.93
2022-10-21T20:14:08.950Z,4.18
2022-10-21T20:16:38.658Z,4.90
2022-10-21T20:19:07.848Z,3.33
2022-10-21T20:21:37.186Z,3.97
2022-10-21T20:24:05.902Z,3.42
2022-10-21T20:26:35.453Z,3.38
2022-10-21T20:29:03.430Z,3.28
2022-10-21T20:31:31.404Z,4.25
2022-10-21T20:33:59.323Z,3.95
2022-10-21T20:36:29.778Z,3.10
2022-10-21T20:39:00.464Z,7.65
2022-10-21T20:41:33.485Z,3.83
2022-10-21T20:44:03.473Z,4.00
2022-10-21T20:49:06.683Z,3.92
2022-10-21T20:51:36.110Z,3.28
2022-10-21T20:54:06.747Z,4.45
2022-10-21T20:56:38.226Z,5.05
2022-10-21T20:59:09.494Z,4.70
2022-10-21T21:01:41.833Z,3.83
2022-10-21T21:04:13.335Z,3.28
2022-10-21T21:06:43.787Z,5.28
2022-10-21T21:12:02.808Z,4.05
2022-10-21T21:14:32.621Z,5.43
2022-10-21T21:17:00.549Z,4.32
2022-10-21T21:19:28.682Z,4.32
2022-10-21T21:21:56.617Z,3.53
2022-10-21T21:24:24.756Z,8.98
2022-10-21T21:26:52.718Z,4.47
2022-10-21T21:29:20.753Z,6.03
2022-10-21T21:31:50.111Z,9.07
2022-10-21T21:34:18.163Z,5.95
2022-10-21T21:36:46.298Z,3.83
2022-10-21T21:41:47.829Z,8.73
2022-10-21T21:44:15.745Z,5.00
2022-10-21T21:46:43.750Z,5.72
2022-10-21T21:49:13.172Z,3.90
2022-10-21T21:51:41.155Z,5.72
2022-10-21T21:54:09.152Z,5.57
2022-10-21T21:56:37.545Z,9.63
2022-10-21T21:59:05.625Z,5.32
2022-10-21T22:01:33.593Z,5.57
2022-10-21T22:04:02.237Z,5.13
2022-10-21T22:06:33.876Z,4.93
2022-10-21T22:09:02.861Z,3.90
2022-10-21T22:11:33.235Z,4.37
2022-10-21T22:14:01.177Z,3.88
2022-10-21T22:16:31.017Z,6.43
2022-10-21T22:21:28.195Z,3.33
2022-10-21T22:23:57.591Z,4.18
2022-10-21T22:26:26.908Z,6.43
2022-10-21T22:28:55.737Z,4.57
2022-10-21T22:31:29.130Z,4.70
2022-10-21T22:34:00.089Z,5.75
2022-10-21T22:36:28.393Z,5.47
2022-10-21T22:38:58.062Z,5.03
2022-10-21T22:41:26.227Z,2.90
2022-10-21T22:43:54.180Z,6.63
2022-10-21T22:46:34.202Z,7.80
2022-10-21T22:49:05.210Z,5.28
2022-10-21T22:51:34.771Z,4.35
2022-10-21T22:54:05.628Z,5.30
2022-10-21T22:56:38.618Z,4.60
2022-10-21T22:59:06.659Z,5.45
2022-10-21T23:01:34.671Z,7.10
2022-10-21T23:04:03.600Z,3.72
2022-10-21T23:06:31.841Z,3.07
2022-10-21T23:08:59.858Z,3.50
2022-10-21T23:11:30.189Z,3.88
2022-10-21T23:14:03.481Z,5.43
2022-10-21T23:16:36.039Z,3.53
2022-10-21T23:19:04.074Z,7.47
2022-10-21T23:21:32.269Z,3.42
2022-10-21T23:24:00.226Z,3.80
2022-10-21T23:26:29.683Z,3.58
2022-10-21T23:28:57.652Z,4.72
2022-10-21T23:31:25.646Z,4.95
2022-10-21T23:33:53.562Z,5.88
2022-10-21T23:36:21.954Z,4.53
2022-10-21T23:38:49.919Z,4.43
2022-10-21T23:41:17.855Z,6.20
2022-10-21T23:43:47.239Z,5.07
2022-10-21T23:46:15.316Z,7.13
2022-10-21T23:48:43.260Z,7.07
2022-10-21T23:51:11.254Z,7.05
2022-10-21T23:53:39.300Z,4.30
2022-10-21T23:56:08.162Z,8.35
2022-10-21T23:58:36.386Z,6.28
